Time;durP1;ratioP1;P1;durP2;ratioP2;P2;SDS_P1;SDS_P2;PMS_P1;PMS_P2;Temp;Humidity;BMP_temperature;BMP_pressure;BME280_temperature;BME280_humidity;BME280_pressure;Samples;Min_cycle;Max_cycle;Signal;HPM_P1;HPM_P2
2023/09/16 00:01:22;;;;;;;3.70;2.40;;;;;;;10.10;75.97;101396.95;108837;279;38320;-71
2023/09/16 00:03:57;;;;;;;6.20;2.60;;;;;;;10.14;75.92;101396.16;108886;279;38255;-72
2023/09/16 00:06:31;;;;;;;3.40;2.50;;;;;;;10.18;75.88;101396.10;108845;279;39525;-72
2023/09/16 00:09:05;;;;;;;6.10;2.30;;;;;;;10.20;75.69;101392.38;109001;279;38285;-72
2023/09/16 00:11:40;;;;;;;4.20;2.70;;;;;;;10.20;75.38;101393.96;108972;279;38326;-71
2023/09/16 00:14:14;;;;;;;5.20;2.60;;;;;;;10.18;75.32;101391.38;108963;278;38625;-73
2023/09/16 00:16:52;;;;;;;5.50;2.50;;;;;;;10.14;75.30;101391.11;108940;278;38166;-72
2023/09/16 00:19:26;;;;;;;8.80;2.50;;;;;;;10.11;75.20;101391.70;108924;278;38949;-72
2023/09/16 00:22:04;;;;;;;4.10;2.40;;;;;;;10.07;75.17;101387.60;108855;278;38197;-72
2023/09/16 00:24:44;;;;;;;3.80;2.40;;;;;;;10.06;75.29;101386.22;108965;278;39412;-72
2023/09/16 00:27:25;;;;;;;4.90;3.20;;;;;;;10.05;75.22;101385.88;108947;278;38243;-71
2023/09/16 00:30:03;;;;;;;4.60;2.00;;;;;;;10.04;75.24;101384.85;108956;278;38158;-72
2023/09/16 00:32:40;;;;;;;7.90;2.70;;;;;;;10.03;75.32;101388.02;108966;278;39624;-72
2023/09/16 00:35:14;;;;;;;5.20;2.70;;;;;;;10.02;75.35;101388.38;108946;278;38460;-71
2023/09/16 00:37:48;;;;;;;5.30;2.50;;;;;;;10.02;75.40;101390.30;108938;278;38680;-72
2023/09/16 00:40:25;;;;;;;5.80;2.50;;;;;;;10.02;75.49;101388.73;108978;278;38232;-71
2023/09/16 00:43:01;;;;;;;6.40;2.80;;;;;;;10.02;75.54;101387.00;109039;278;38157;-72
2023/09/16 00:45:40;;;;;;;5.30;2.60;;;;;;;9.98;75.56;101383.57;109016;278;38161;-72
2023/09/16 00:48:17;;;;;;;5.50;2.40;;;;;;;9.93;75.40;101387.69;109123;278;38605;-72
2023/09/16 00:50:52;;;;;;;4.90;2.20;;;;;;;9.91;75.70;101384.42;109068;279;38297;-72
2023/09/16 00:53:26;;;;;;;5.10;2.50;;;;;;;9.89;75.89;101384.98;108970;279;38256;-71
2023/09/16 00:56:03;;;;;;;7.30;2.70;;;;;;;9.86;75.90;101389.56;108911;279;175329;-71
2023/09/16 00:58:41;;;;;;;4.30;2.30;;;;;;;9.85;76.03;101392.89;109061;279;39090;-72
2023/09/16 01:01:22;;;;;;;5.10;2.40;;;;;;;9.82;76.14;101388.06;109042;278;39511;-72
2023/09/16 01:03:57;;;;;;;4.80;2.40;;;;;;;9.77;76.23;101386.77;108967;278;38222;-73
2023/09/16 01:06:34;;;;;;;4.00;2.00;;;;;;;9.75;76.34;101387.33;108903;278;38290;-72
2023/09/16 01:09:10;;;;;;;4.00;2.30;;;;;;;9.73;76.55;101386.84;108879;278;38990;-72
2023/09/16 01:11:45;;;;;;;4.70;2.40;;;;;;;9.72;76.76;101386.33;108918;278;39283;-74
2023/09/16 01:14:23;;;;;;;5.70;2.90;;;;;;;9.70;76.94;101387.41;108961;278;39792;-71
2023/09/16 01:17:03;;;;;;;7.10;2.70;;;;;;;9.67;77.22;101385.90;108949;278;38689;-71
2023/09/16 01:19:46;;;;;;;4.40;2.30;;;;;;;9.64;77.34;101384.58;108934;278;38445;-71
2023/09/16 01:22:22;;;;;;;5.10;2.20;;;;;;;9.60;77.55;101384.48;108940;278;38176;-71
2023/09/16 01:25:01;;;;;;;4.90;2.60;;;;;;;9.57;77.70;101382.60;109011;278;39348;-72
2023/09/16 01:27:39;;;;;;;6.60;2.60;;;;;;;9.56;77.90;101380.70;109003;278;38298;-71
2023/09/16 01:30:18;;;;;;;6.20;2.60;;;;;;;9.56;77.96;101384.54;108912;278;38563;-73
2023/09/16 01:32:55;;;;;;;6.10;2.30;;;;;;;9.55;78.21;101386.28;108977;278;38747;-72
2023/09/16 01:35:37;;;;;;;6.30;2.50;;;;;;;9.53;78.30;101381.45;108928;278;38284;-71
2023/09/16 01:38:17;;;;;;;5.80;2.30;;;;;;;9.49;78.27;101381.17;108940;278;38769;-73
2023/09/16 01:40:55;;;;;;;3.80;2.50;;;;;;;9.47;78.13;101379.98;108851;278;39516;-72
2023/09/16 01:43:31;;;;;;;4.10;2.40;;;;;;;9.47;78.29;101378.77;108951;278;39458;-72
2023/09/16 01:46:07;;;;;;;4.30;2.40;;;;;;;9.47;78.24;101375.80;108913;278;38163;-71
2023/09/16 01:48:46;;;;;;;4.90;2.90;;;;;;;9.44;78.15;101373.77;108919;278;38255;-72
2023/09/16 01:51:25;;;;;;;5.70;2.60;;;;;;;9.44;78.30;101371.68;108916;278;39765;-72
2023/09/16 01:54:03;;;;;;;3.90;2.80;;;;;;;9.44;78.38;101372.55;108949;278;38445;-72
2023/09/16 01:56:37;;;;;;;6.20;2.80;;;;;;;9.46;78.61;101374.25;108929;278;38642;-72
2023/09/16 01:59:14;;;;;;;6.20;3.30;;;;;;;9.48;78.67;101374.55;108964;278;39381;-72
2023/09/16 02:01:48;;;;;;;5.70;2.50;;;;;;;9.51;78.76;101370.86;108909;278;39055;-72
2023/09/16 02:04:25;;;;;;;5.20;3.00;;;;;;;9.54;78.69;101375.85;108931;278;38156;-72
2023/09/16 02:07:03;;;;;;;5.10;3.00;;;;;;;9.56;78.79;101374.42;108993;278;38474;-70
2023/09/16 02:09:42;;;;;;;5.50;2.70;;;;;;;9.54;78.80;101377.24;109007;278;38168;-72
2023/09/16 02:12:18;;;;;;;7.30;2.70;;;;;;;9.52;78.59;101374.66;108943;278;39219;-72
2023/09/16 02:14:53;;;;;;;5.60;3.30;;;;;;;9.52;78.66;101375.89;108932;278;38159;-71
2023/09/16 02:17:28;;;;;;;7.90;3.40;;;;;;;9.53;78.72;101379.88;108910;278;38186;-71
2023/09/16 02:20:02;;;;;;;5.60;2.80;;;;;;;9.53;78.67;101377.96;108936;278;38444;-72
2023/09/16 02:22:38;;;;;;;4.50;3.10;;;;;;;9.51;78.59;101379.40;108976;278;38795;-71
2023/09/16 02:25:18;;;;;;;3.80;2.50;;;;;;;9.48;78.63;101378.92;108923;278;39450;-72
2023/09/16 02:27:55;;;;;;;4.40;2.90;;;;;;;9.46;78.66;101377.91;108929;278;38165;-71
2023/09/16 02:30:34;;;;;;;4.00;2.70;;;;;;;9.46;78.60;101378.45;108937;278;38300;-72
2023/09/16 02:33:10;;;;;;;5.30;3.20;;;;;;;9.45;78.67;101379.68;108918;278;38296;-71
2023/09/16 02:35:52;;;;;;;5.60;2.80;;;;;;;9.45;78.70;101381.77;108942;278;38177;-72
2023/09/16 02:38:32;;;;;;;6.30;3.00;;;;;;;9.43;78.80;101376.92;108899;278;38743;-72
2023/09/16 02:41:15;;;;;;;4.60;2.60;;;;;;;9.42;78.84;101380.42;108950;278;39429;-71
2023/09/16 02:43:50;;;;;;;4.80;2.80;;;;;;;9.39;79.06;101382.21;108912;278;39192;-71
2023/09/16 02:46:29;;;;;;;5.70;3.00;;;;;;;9.40;79.11;101383.23;108922;278;38179;-71
2023/09/16 02:49:11;;;;;;;5.90;2.70;;;;;;;9.38;79.22;101386.41;108902;278;39089;-70
2023/09/16 02:51:48;;;;;;;4.40;2.80;;;;;;;9.37;79.25;101387.83;108955;278;38199;-71
2023/09/16 02:54:28;;;;;;;5.20;2.80;;;;;;;9.32;79.35;101388.24;108918;278;38264;-72
2023/09/16 02:57:05;;;;;;;4.30;2.70;;;;;;;9.30;79.34;101385.85;108972;278;39986;-71
2023/09/16 02:59:40;;;;;;;4.70;2.90;;;;;;;9.28;79.47;101383.96;108960;278;39987;-72
2023/09/16 03:02:18;;;;;;;6.30;3.20;;;;;;;9.26;79.39;101387.13;108942;278;38506;-71
2023/09/16 03:04:53;;;;;;;5.00;3.20;;;;;;;9.23;79.48;101388.39;108945;278;38479;-71
2023/09/16 03:07:31;;;;;;;5.40;3.00;;;;;;;9.20;79.45;101386.36;108977;278;38777;-70
2023/09/16 03:10:06;;;;;;;3.80;2.60;;;;;;;9.15;79.51;101388.35;108913;278;38445;-71
2023/09/16 03:12:46;;;;;;;6.40;3.00;;;;;;;9.09;79.54;101390.70;108982;278;37814;-70
2023/09/16 03:15:20;;;;;;;4.40;2.80;;;;;;;9.06;79.76;101392.16;108901;278;38269;-71
2023/09/16 03:17:55;;;;;;;3.70;2.90;;;;;;;9.04;79.91;101394.96;108943;278;39429;-71
2023/09/16 03:20:29;;;;;;;6.10;2.80;;;;;;;9.00;79.84;101394.34;108890;278;39052;-69
2023/09/16 03:23:05;;;;;;;5.60;2.80;;;;;;;8.97;79.96;101395.77;108903;278;38415;-71
2023/09/16 03:25:44;;;;;;;5.20;2.90;;;;;;;8.93;79.95;101394.77;108923;278;38632;-71
2023/09/16 03:28:18;;;;;;;6.40;3.20;;;;;;;8.90;80.24;101395.69;108914;278;39547;-72
2023/09/16 03:30:53;;;;;;;5.20;2.60;;;;;;;8.87;80.15;101399.03;108906;278;39873;-73
2023/09/16 03:33:30;;;;;;;4.60;2.80;;;;;;;8.89;80.38;101401.63;108964;278;38575;-71
2023/09/16 03:36:10;;;;;;;6.00;3.10;;;;;;;8.89;80.45;101404.41;108984;278;38796;-70
2023/09/16 03:38:53;;;;;;;5.50;3.10;;;;;;;8.86;80.49;101402.55;108966;278;38503;-72
2023/09/16 03:41:32;;;;;;;5.60;2.60;;;;;;;8.81;80.38;101403.14;108981;278;38716;-72
2023/09/16 03:44:15;;;;;;;6.70;3.40;;;;;;;8.75;80.51;101401.14;109002;278;39319;-72
2023/09/16 03:46:51;;;;;;;8.20;2.80;;;;;;;8.73;80.86;101397.67;109012;278;38284;-72
2023/09/16 03:49:28;;;;;;;4.90;3.10;;;;;;;8.74;81.01;101396.28;109002;278;38230;-72
2023/09/16 03:52:11;;;;;;;8.80;4.20;;;;;;;8.77;81.26;101396.06;108830;278;39836;-72
2023/09/16 03:54:49;;;;;;;5.60;3.50;;;;;;;8.79;81.51;101395.67;108905;270;39311;-72
2023/09/16 03:57:24;;;;;;;6.80;3.10;;;;;;;8.77;81.26;101397.80;108784;278;175370;-71
2023/09/16 04:00:03;;;;;;;4.90;2.70;;;;;;;8.74;81.28;101397.31;108941;278;38212;-71
2023/09/16 04:02:44;;;;;;;5.20;3.00;;;;;;;8.73;81.34;101397.33;108937;278;38727;-70
2023/09/16 04:05:18;;;;;;;6.90;3.20;;;;;;;8.68;81.60;101396.52;108932;278;38149;-72
2023/09/16 04:07:54;;;;;;;5.60;3.10;;;;;;;8.71;81.62;101401.19;108804;278;172704;-71
2023/09/16 04:10:28;;;;;;;4.90;3.10;;;;;;;8.73;81.81;101399.95;108752;278;172733;-71
2023/09/16 04:13:09;;;;;;;5.80;2.70;;;;;;;8.73;82.08;101401.33;108965;278;39602;-72
2023/09/16 04:15:45;;;;;;;4.80;2.80;;;;;;;8.71;82.00;101398.92;108894;278;38347;-72
2023/09/16 04:18:19;;;;;;;6.90;3.10;;;;;;;8.72;82.24;101399.79;108946;278;38348;-72
2023/09/16 04:20:55;;;;;;;6.70;2.70;;;;;;;8.73;82.30;101399.93;108855;278;188493;-73
2023/09/16 04:23:35;;;;;;;5.20;3.10;;;;;;;8.76;82.57;101399.73;109027;278;40004;-72
2023/09/16 04:26:14;;;;;;;8.30;3.60;;;;;;;8.77;82.68;101398.67;109003;278;38647;-71
2023/09/16 04:28:49;;;;;;;7.60;3.60;;;;;;;8.78;82.57;101396.55;109033;278;39700;-71
2023/09/16 04:31:29;;;;;;;5.10;3.30;;;;;;;8.81;82.83;101392.52;109006;278;38253;-74
2023/09/16 04:34:06;;;;;;;7.70;3.00;;;;;;;8.88;83.18;101392.79;108999;278;38787;-72
2023/09/16 04:36:44;;;;;;;5.00;3.20;;;;;;;8.94;83.29;101386.60;108933;278;38480;-72
2023/09/16 04:39:23;;;;;;;4.80;3.10;;;;;;;9.02;83.47;101391.52;109030;278;38308;-72
2023/09/16 04:41:57;;;;;;;6.40;3.20;;;;;;;9.12;83.66;101390.32;108954;278;38908;-72
2023/09/16 04:44:38;;;;;;;4.60;3.10;;;;;;;9.20;83.79;101391.40;108973;278;39476;-73
2023/09/16 04:47:12;;;;;;;5.80;3.20;;;;;;;9.29;83.96;101388.13;108933;278;38572;-73
2023/09/16 04:49:50;;;;;;;5.00;3.70;;;;;;;9.41;83.87;101386.02;108941;279;38762;-71
2023/09/16 04:52:27;;;;;;;5.80;3.30;;;;;;;9.54;84.22;101383.51;108938;279;38174;-71
2023/09/16 04:55:02;;;;;;;6.90;3.80;;;;;;;9.68;84.27;101383.98;109041;279;38285;-72
2023/09/16 04:57:45;;;;;;;6.40;3.90;;;;;;;9.78;84.30;101386.74;109143;278;38189;-72
2023/09/16 05:00:27;;;;;;;6.80;4.20;;;;;;;9.89;84.29;101385.32;109066;278;38290;-72
2023/09/16 05:03:04;;;;;;;7.00;3.80;;;;;;;10.00;84.11;101382.85;108933;278;175337;-73
2023/09/16 05:05:40;;;;;;;6.90;3.70;;;;;;;10.12;84.16;101384.36;109078;278;38168;-71
2023/09/16 05:08:17;;;;;;;5.60;3.70;;;;;;;10.25;84.48;101383.77;109098;278;38233;-72
2023/09/16 05:11:03;;;;;;;6.00;3.90;;;;;;;10.40;84.65;101386.44;108937;279;38757;-72
2023/09/16 05:13:40;;;;;;;5.20;3.70;;;;;;;10.60;84.83;101391.23;108976;279;38392;-72
2023/09/16 05:16:15;;;;;;;6.00;3.80;;;;;;;11.17;85.81;101391.33;108933;279;40494;-72
2023/09/16 05:18:51;;;;;;;6.50;3.90;;;;;;;11.74;85.55;101393.72;108935;279;38921;-72
2023/09/16 05:21:31;;;;;;;7.30;4.00;;;;;;;12.00;84.14;101392.70;108972;279;39353;-72
2023/09/16 05:24:15;;;;;;;9.60;4.30;;;;;;;12.15;82.71;101398.58;108934;279;39357;-72
2023/09/16 05:26:56;;;;;;;5.20;3.50;;;;;;;12.24;81.92;101396.58;108982;278;38195;-72
2023/09/16 05:29:31;;;;;;;7.20;4.40;;;;;;;12.39;81.42;101398.41;108988;279;38786;-74
2023/09/16 05:32:11;;;;;;;7.00;3.60;;;;;;;12.42;80.88;101399.39;108947;279;39397;-72
2023/09/16 05:34:45;;;;;;;6.70;3.80;;;;;;;12.44;80.40;101400.72;108994;279;38361;-74
2023/09/16 05:37:21;;;;;;;5.50;3.60;;;;;;;12.48;80.07;101401.83;108962;279;38932;-73
2023/09/16 05:39:56;;;;;;;7.80;4.00;;;;;;;12.54;79.95;101398.34;109001;279;39676;-75
2023/09/16 05:42:40;;;;;;;6.70;3.80;;;;;;;12.61;79.74;101401.11;109001;279;38170;-72
2023/09/16 05:45:16;;;;;;;5.90;3.50;;;;;;;12.66;79.62;101401.11;109061;278;37265;-73
2023/09/16 05:47:55;;;;;;;5.20;3.10;;;;;;;12.73;79.44;101400.02;109043;278;38251;-72
2023/09/16 05:50:30;;;;;;;5.70;3.60;;;;;;;13.14;81.25;101396.45;108987;279;38275;-72
2023/09/16 05:53:06;;;;;;;5.30;3.30;;;;;;;14.40;84.41;101389.64;108947;278;38739;-73
2023/09/16 05:55:47;;;;;;;5.70;3.30;;;;;;;15.73;84.47;101387.48;108996;278;38255;-72
2023/09/16 05:58:27;;;;;;;5.30;3.20;;;;;;;16.77;78.52;101387.50;108970;278;39948;-73
2023/09/16 06:01:04;;;;;;;5.30;3.30;;;;;;;17.67;74.73;101384.15;108977;278;38206;-74
2023/09/16 06:03:40;;;;;;;8.00;3.50;;;;;;;18.26;70.46;101383.54;108942;278;38342;-74
2023/09/16 06:06:20;;;;;;;4.80;3.70;;;;;;;18.24;66.71;101385.25;108919;278;39192;-72
2023/09/16 06:08:57;;;;;;;5.70;3.60;;;;;;;17.98;65.09;101390.48;108981;278;38201;-74
2023/09/16 06:11:31;;;;;;;4.60;3.40;;;;;;;17.69;64.16;101391.81;108945;278;38310;-73
2023/09/16 06:14:06;;;;;;;4.80;3.60;;;;;;;17.39;63.77;101398.96;108905;278;39406;-73
2023/09/16 06:16:40;;;;;;;12.30;3.60;;;;;;;17.17;63.95;101402.86;108908;278;39023;-73
2023/09/16 06:19:17;;;;;;;5.30;3.70;;;;;;;17.02;63.92;101407.52;108973;278;38141;-74
2023/09/16 06:21:54;;;;;;;6.20;3.90;;;;;;;16.88;63.81;101408.33;109005;278;39840;-73
2023/09/16 06:24:31;;;;;;;4.20;3.40;;;;;;;16.77;64.24;101410.81;108980;278;39337;-73
2023/09/16 06:27:14;;;;;;;5.80;3.80;;;;;;;16.64;64.13;101409.80;108997;278;37889;-75
2023/09/16 06:29:52;;;;;;;4.90;3.20;;;;;;;16.50;64.36;101406.03;108927;278;38250;-73
2023/09/16 06:32:27;;;;;;;9.90;4.90;;;;;;;16.39;64.74;101405.98;108832;278;175018;-75
2023/09/16 06:35:01;;;;;;;7.60;4.10;;;;;;;16.34;64.60;101409.45;108899;278;38141;-74
2023/09/16 06:37:36;;;;;;;4.40;3.70;;;;;;;16.30;64.92;101408.73;108951;278;38521;-74
2023/09/16 06:40:22;;;;;;;4.90;3.40;;;;;;;16.33;64.90;101406.11;108944;278;38634;-76
2023/09/16 06:42:59;;;;;;;6.20;3.40;;;;;;;16.40;64.79;101407.02;108954;278;39378;-73
2023/09/16 06:45:36;;;;;;;6.60;3.60;;;;;;;16.38;64.55;101403.78;108918;278;38168;-73
2023/09/16 06:48:14;;;;;;;6.00;3.40;;;;;;;16.35;64.73;101401.63;108912;278;38862;-74
2023/09/16 06:50:50;;;;;;;4.90;3.30;;;;;;;16.34;64.83;101403.95;108898;278;39354;-73
2023/09/16 06:53:36;;;;;;;5.40;3.80;;;;;;;16.32;64.85;101397.73;108956;278;38224;-74
2023/09/16 06:56:29;;;;;;;5.50;3.50;;;;;;;16.32;64.71;101400.38;108952;278;38320;-74
2023/09/16 06:59:03;;;;;;;4.60;3.00;;;;;;;16.32;64.75;101396.66;108469;278;38619;-75
2023/09/16 07:01:41;;;;;;;4.90;3.30;;;;;;;16.34;65.21;101400.92;108885;278;38256;-73
2023/09/16 07:04:18;;;;;;;6.20;3.70;;;;;;;16.41;65.45;101402.05;108948;278;38258;-73
2023/09/16 07:06:53;;;;;;;7.70;3.40;;;;;;;16.57;65.41;101405.52;108964;278;38733;-71
2023/09/16 07:09:29;;;;;;;5.20;3.40;;;;;;;16.75;64.75;101406.48;109040;278;39457;-73
2023/09/16 07:12:05;;;;;;;5.10;3.20;;;;;;;16.90;64.87;101408.61;108972;278;38147;-71
2023/09/16 07:14:42;;;;;;;6.30;3.10;;;;;;;17.04;64.47;101407.06;108960;278;39347;-73
2023/09/16 07:17:17;;;;;;;6.30;3.40;;;;;;;17.14;63.33;101407.27;109018;278;38257;-73
2023/09/16 07:19:56;;;;;;;6.10;3.50;;;;;;;17.18;62.93;101404.05;109011;278;38391;-75
2023/09/16 07:22:34;;;;;;;6.20;3.30;;;;;;;17.24;62.75;101403.77;109085;278;38174;-73
2023/09/16 07:25:18;;;;;;;5.60;3.30;;;;;;;17.27;62.76;101405.20;109051;278;38179;-76
2023/09/16 07:27:53;;;;;;;4.90;3.00;;;;;;;17.31;62.44;101404.67;108924;278;38149;-73
2023/09/16 07:30:32;;;;;;;5.90;2.60;;;;;;;17.32;62.30;101407.97;108946;278;38174;-72
2023/09/16 07:33:09;;;;;;;3.90;2.90;;;;;;;17.33;62.31;101409.69;108944;278;38125;-73
2023/09/16 07:35:45;;;;;;;5.00;3.20;;;;;;;17.33;62.07;101405.06;108924;278;38439;-72
2023/09/16 07:38:21;;;;;;;4.20;2.80;;;;;;;17.34;61.59;101404.89;108947;278;38873;-72
2023/09/16 07:40:56;;;;;;;4.40;2.70;;;;;;;17.32;61.79;101407.27;108902;278;38249;-71
2023/09/16 07:43:35;;;;;;;4.00;3.10;;;;;;;17.32;62.27;101406.03;108947;278;38161;-75
2023/09/16 07:46:14;;;;;;;5.50;2.80;;;;;;;17.40;62.59;101405.10;108813;278;174941;-75
2023/09/16 07:48:50;;;;;;;4.90;3.30;;;;;;;17.53;62.44;101398.81;108930;278;38143;-75
2023/09/16 07:51:31;;;;;;;6.70;2.80;;;;;;;17.75;62.39;101394.52;108870;278;39567;-75
2023/09/16 07:54:11;;;;;;;4.40;2.70;;;;;;;18.16;62.86;101393.61;108991;278;38180;-74
2023/09/16 07:56:55;;;;;;;3.50;2.90;;;;;;;18.77;62.66;101392.92;108939;278;38185;-74
2023/09/16 07:59:32;;;;;;;5.00;2.80;;;;;;;19.52;60.16;101388.06;108904;278;174730;-74
2023/09/16 08:02:10;;;;;;;3.80;2.60;;;;;;;20.33;58.31;101391.49;108956;278;39275;-74
2023/09/16 08:04:43;;;;;;;4.10;2.70;;;;;;;21.31;57.05;101386.27;108972;278;38450;-74
2023/09/16 08:07:21;;;;;;;5.30;2.50;;;;;;;22.32;52.80;101381.83;108983;278;39473;-74
2023/09/16 08:10:02;;;;;;;3.90;2.70;;;;;;;23.24;52.12;101380.96;108323;278;889238;-76
2023/09/16 08:12:44;;;;;;;3.40;2.50;;;;;;;24.20;49.59;101380.27;108991;278;38296;-78
2023/09/16 08:15:19;;;;;;;3.90;2.50;;;;;;;25.06;47.25;101384.57;108779;278;173315;-75
2023/09/16 08:17:55;;;;;;;3.10;2.40;;;;;;;25.85;45.41;101374.88;108908;278;39627;-75
2023/09/16 08:20:31;;;;;;;5.70;2.60;;;;;;;26.56;44.41;101374.61;108854;278;38216;-76
2023/09/16 08:23:13;;;;;;;5.10;2.40;;;;;;;27.11;41.99;101366.73;108935;278;38223;-77
2023/09/16 08:25:57;;;;;;;2.70;2.40;;;;;;;27.34;39.90;101362.52;108802;278;174294;-75
2023/09/16 08:28:35;;;;;;;4.00;2.70;;;;;;;27.19;39.15;101363.85;108939;278;38430;-76
2023/09/16 08:31:13;;;;;;;3.20;2.40;;;;;;;26.97;39.89;101360.15;108845;278;38357;-76
2023/09/16 08:33:53;;;;;;;3.00;2.50;;;;;;;26.75;39.27;101361.96;108978;278;38847;-77
2023/09/16 08:36:31;;;;;;;3.90;2.40;;;;;;;26.47;40.15;101358.71;108929;278;39642;-77
2023/09/16 08:39:11;;;;;;;4.70;2.40;;;;;;;26.41;39.83;101364.84;108930;278;38807;-76
2023/09/16 08:41:52;;;;;;;3.50;2.30;;;;;;;26.55;40.23;101368.27;108944;278;38477;-77
2023/09/16 08:44:35;;;;;;;5.70;2.40;;;;;;;26.87;40.13;101372.13;108944;278;38502;-76
2023/09/16 08:47:16;;;;;;;6.50;2.50;;;;;;;27.19;39.29;101367.40;108916;279;40563;-76
2023/09/16 08:49:55;;;;;;;4.50;2.20;;;;;;;27.51;37.95;101365.69;109019;279;39207;-76
2023/09/16 08:52:42;;;;;;;3.00;2.10;;;;;;;27.68;36.91;101361.73;108983;279;39190;-78
2023/09/16 08:55:27;;;;;;;3.30;2.40;;;;;;;27.79;36.48;101364.36;109014;279;39157;-77
2023/09/16 08:58:11;;;;;;;2.60;2.20;;;;;;;27.66;36.51;101358.70;108971;279;38165;-76
2023/09/16 09:00:47;;;;;;;4.10;2.20;;;;;;;27.56;36.98;101350.85;109060;278;38294;-77
2023/09/16 09:03:22;;;;;;;3.30;2.40;;;;;;;27.43;36.82;101353.55;108910;278;41196;-76
2023/09/16 09:05:59;;;;;;;4.00;2.20;;;;;;;27.25;36.46;101351.30;109048;279;38176;-75
2023/09/16 09:08:36;;;;;;;4.30;2.30;;;;;;;27.00;37.00;101350.20;109012;279;38507;-77
2023/09/16 09:11:15;;;;;;;2.90;2.60;;;;;;;26.73;37.23;101351.39;109001;279;38565;-75
2023/09/16 09:13:53;;;;;;;3.90;2.40;;;;;;;26.43;37.10;101355.73;108972;279;39332;-77
2023/09/16 09:16:35;;;;;;;4.60;2.30;;;;;;;26.13;37.81;101354.79;108984;279;38269;-77
2023/09/16 09:19:21;;;;;;;2.70;2.40;;;;;;;26.07;38.19;101354.02;108971;279;39491;-77
2023/09/16 09:21:59;;;;;;;4.60;2.50;;;;;;;26.13;38.66;101354.08;108987;279;38343;-77
2023/09/16 09:24:41;;;;;;;3.10;2.10;;;;;;;26.47;38.87;101350.55;108945;279;39939;-78
2023/09/16 09:27:22;;;;;;;3.60;2.20;;;;;;;26.91;37.22;101342.45;108941;278;39404;-77
2023/09/16 09:29:56;;;;;;;4.20;2.40;;;;;;;27.30;37.33;101349.00;108964;278;38648;-77
2023/09/16 09:32:41;;;;;;;2.50;2.20;;;;;;;27.70;35.95;101347.98;108967;278;38243;-78
2023/09/16 09:35:18;;;;;;;5.50;2.50;;;;;;;27.92;34.88;101346.77;109050;278;39000;-75
2023/09/16 09:37:56;;;;;;;2.80;2.20;;;;;;;27.99;34.75;101341.05;109030;278;38354;-76
2023/09/16 09:40:36;;;;;;;4.20;2.40;;;;;;;28.12;34.63;101334.39;109034;278;38185;-76
2023/09/16 09:43:23;;;;;;;3.70;2.20;;;;;;;27.99;34.39;101330.65;108964;278;38223;-76
2023/09/16 09:46:02;;;;;;;3.90;2.20;;;;;;;27.70;35.11;101327.55;108956;278;38548;-76
2023/09/16 09:48:39;;;;;;;3.40;2.70;;;;;;;27.45;35.92;101320.95;108948;278;39358;-76
2023/09/16 09:51:19;;;;;;;4.50;2.30;;;;;;;27.15;36.12;101319.09;108981;278;38183;-75
2023/09/16 09:53:54;;;;;;;7.80;2.40;;;;;;;26.74;35.61;101319.95;108986;278;38659;-75
2023/09/16 09:56:28;;;;;;;3.80;2.40;;;;;;;26.21;36.24;101321.00;108927;278;38848;-75
2023/09/16 09:59:03;;;;;;;3.30;2.40;;;;;;;25.75;36.60;101311.44;108935;278;38230;-72
2023/09/16 10:01:37;;;;;;;6.00;2.50;;;;;;;25.31;37.08;101312.54;108893;278;38351;-73
2023/09/16 10:04:15;;;;;;;3.60;2.30;;;;;;;24.89;37.76;101312.48;108959;278;38735;-73
2023/09/16 10:06:50;;;;;;;3.70;1.90;;;;;;;24.49;38.28;101310.09;108904;278;39799;-74
2023/09/16 10:09:26;;;;;;;2.50;2.20;;;;;;;24.25;39.34;101306.83;108932;278;40079;-74
2023/09/16 10:12:04;;;;;;;3.60;2.40;;;;;;;24.08;39.97;101301.42;108922;278;38498;-74
2023/09/16 10:14:38;;;;;;;2.90;2.60;;;;;;;23.95;39.89;101303.38;109003;278;38444;-76
2023/09/16 10:17:18;;;;;;;3.40;2.20;;;;;;;23.77;40.25;101305.63;108939;278;38183;-74
2023/09/16 10:20:01;;;;;;;3.90;2.40;;;;;;;23.61;40.35;101304.41;109056;278;38761;-77
2023/09/16 10:22:47;;;;;;;3.70;2.40;;;;;;;23.47;40.65;101299.60;108878;278;171926;-77
2023/09/16 10:25:24;;;;;;;2.60;2.00;;;;;;;23.35;40.87;101291.98;108913;278;39346;-78
2023/09/16 10:28:07;;;;;;;2.80;2.20;;;;;;;23.27;41.28;101290.15;108948;278;38748;-76
2023/09/16 10:30:48;;;;;;;3.60;2.70;;;;;;;23.20;41.34;101291.18;108784;278;174650;-77
2023/09/16 10:33:26;;;;;;;3.20;2.10;;;;;;;23.08;41.09;101279.66;108973;278;38676;-75
2023/09/16 10:36:09;;;;;;;3.00;2.10;;;;;;;23.01;41.67;101270.05;108945;278;38352;-77
2023/09/16 10:38:52;;;;;;;2.90;2.60;;;;;;;23.01;42.15;101266.14;108959;278;38406;-75
2023/09/16 10:41:33;;;;;;;4.20;2.30;;;;;;;23.01;41.78;101269.84;108259;278;892595;-76
2023/09/16 10:44:14;;;;;;;8.50;2.30;;;;;;;22.91;41.38;101269.14;108915;278;38255;-77
2023/09/16 10:47:04;;;;;;;5.70;1.90;;;;;;;22.83;40.99;101272.05;108909;278;38290;-76
2023/09/16 10:49:40;;;;;;;2.80;2.10;;;;;;;22.71;41.47;101265.55;108860;278;40939;-75
2023/09/16 10:52:18;;;;;;;2.20;2.00;;;;;;;22.69;42.16;101260.85;108929;278;38932;-75
2023/09/16 10:55:01;;;;;;;3.80;2.10;;;;;;;22.75;42.73;101256.30;108928;278;38716;-75
2023/09/16 10:57:54;;;;;;;4.10;2.40;;;;;;;22.79;42.36;101252.95;108919;278;38956;-74
2023/09/16 11:00:38;;;;;;;2.60;2.10;;;;;;;22.78;41.58;101251.48;108973;278;39680;-76
2023/09/16 11:03:20;;;;;;;3.30;2.50;;;;;;;22.67;41.62;101258.35;109004;278;39479;-77
2023/09/16 11:05:57;;;;;;;5.10;2.10;;;;;;;22.59;41.92;101248.23;109008;278;38324;-76
2023/09/16 11:08:33;;;;;;;5.50;2.50;;;;;;;22.56;42.09;101244.19;108985;278;39839;-76
2023/09/16 11:11:12;;;;;;;4.00;2.30;;;;;;;22.51;42.21;101243.20;108952;278;38733;-75
2023/09/16 11:13:51;;;;;;;3.50;2.70;;;;;;;22.43;42.17;101237.33;108921;278;38187;-76
2023/09/16 11:16:29;;;;;;;8.20;2.60;;;;;;;22.38;42.68;101230.63;108947;278;39465;-75
2023/09/16 11:19:15;;;;;;;6.10;2.50;;;;;;;22.37;42.86;101228.39;108993;278;38317;-75
2023/09/16 11:21:51;;;;;;;4.60;2.70;;;;;;;22.34;42.63;101223.42;108879;278;39917;-75
2023/09/16 11:24:41;;;;;;;5.30;2.40;;;;;;;22.33;42.84;101221.40;108946;278;39847;-76
2023/09/16 11:27:21;;;;;;;4.50;2.60;;;;;;;22.31;42.65;101222.24;108952;278;38292;-77
2023/09/16 11:29:59;;;;;;;3.70;2.40;;;;;;;22.26;42.54;101218.55;109001;278;38313;-77
2023/09/16 11:32:35;;;;;;;4.00;2.20;;;;;;;22.22;42.51;101216.33;109005;278;38994;-73
2023/09/16 11:35:16;;;;;;;3.20;2.40;;;;;;;22.22;43.02;101218.84;108931;278;38216;-71
2023/09/16 11:37:51;;;;;;;5.20;2.90;;;;;;;22.20;42.45;101208.30;108914;278;39707;-71
2023/09/16 11:40:32;;;;;;;5.70;2.90;;;;;;;22.17;42.43;101207.64;108953;278;40037;-72
2023/09/16 11:43:11;;;;;;;4.70;2.80;;;;;;;22.14;42.58;101203.77;108946;278;38275;-72
2023/09/16 11:45:48;;;;;;;;;;;;;;;22.13;42.84;101194.61;108949;278;39404;-78
2023/09/16 11:48:25;;;;;;;3.10;2.30;;;;;;;22.10;42.94;101189.63;108986;278;39515;-74
2023/09/16 11:51:04;;;;;;;3.40;2.50;;;;;;;22.08;42.98;101187.27;108977;278;38371;-72
2023/09/16 11:53:41;;;;;;;3.90;2.40;;;;;;;22.08;43.09;101183.53;108969;278;38686;-73
2023/09/16 11:56:16;;;;;;;3.80;2.30;;;;;;;22.08;43.21;101173.06;108936;278;39524;-72
2023/09/16 11:58:54;;;;;;;6.20;2.10;;;;;;;22.07;43.32;101165.52;109014;278;38565;-71
2023/09/16 12:01:29;;;;;;;;;;;;;;;22.10;43.48;101162.75;108951;278;38385;-70
2023/09/16 12:04:10;;;;;;;3.10;2.30;;;;;;;22.12;43.60;101171.23;108976;278;38408;-69
2023/09/16 12:06:46;;;;;;;4.10;2.40;;;;;;;22.12;43.29;101166.23;108955;278;39190;-69
2023/09/16 12:09:25;;;;;;;3.60;2.50;;;;;;;22.10;43.51;101158.69;108951;278;38274;-73
2023/09/16 12:12:04;;;;;;;3.90;2.30;;;;;;;22.10;43.65;101157.46;108937;278;38199;-73
2023/09/16 12:14:41;;;;;;;3.90;2.50;;;;;;;22.09;43.27;101150.63;108872;279;39050;-74
2023/09/16 12:17:20;;;;;;;7.00;3.30;;;;;;;22.07;43.27;101140.97;108828;279;40612;-74
2023/09/16 12:19:58;;;;;;;4.70;2.80;;;;;;;22.07;43.28;101138.14;108937;280;38199;-72